sensor_id;sensor_type;location;lat;lon;timestamp;pressure;altitude;pressure_sealevel;temperature;humidity
81057;BME280;70563;50.084;14.468;2023-10-31T00:00:15;96656.78;;;12.83;86.77
81057;BME280;70563;50.084;14.468;2023-10-31T00:02:41;96651.16;;;12.79;87.32
81057;BME280;70563;50.084;14.468;2023-10-31T00:05:06;96654.56;;;12.75;87.69
81057;BME280;70563;50.084;14.468;2023-10-31T00:07:32;96639.72;;;12.74;87.35
81057;BME280;70563;50.084;14.468;2023-10-31T00:09:57;96638.09;;;12.73;87.58
81057;BME280;70563;50.084;14.468;2023-10-31T00:12:22;96640.22;;;12.71;87.73
81057;BME280;70563;50.084;14.468;2023-10-31T00:14:48;96640.53;;;12.74;87.60
81057;BME280;70563;50.084;14.468;2023-10-31T00:17:13;96637.34;;;12.77;87.17
81057;BME280;70563;50.084;14.468;2023-10-31T00:19:38;96639.47;;;12.75;87.35
81057;BME280;70563;50.084;14.468;2023-10-31T00:22:04;96643.16;;;12.74;87.51
81057;BME280;70563;50.084;14.468;2023-10-31T00:24:30;96646.56;;;12.70;87.98
81057;BME280;70563;50.084;14.468;2023-10-31T00:26:57;96643.97;;;12.75;87.99
81057;BME280;70563;50.084;14.468;2023-10-31T00:29:22;96642.66;;;12.77;87.61
81057;BME280;70563;50.084;14.468;2023-10-31T00:31:48;96640.75;;;12.73;88.94
81057;BME280;70563;50.084;14.468;2023-10-31T00:34:13;96648.94;;;12.71;88.17
81057;BME280;70563;50.084;14.468;2023-10-31T00:36:38;96652.59;;;12.65;89.17
81057;BME280;70563;50.084;14.468;2023-10-31T00:39:04;96645.19;;;12.67;89.00
81057;BME280;70563;50.084;14.468;2023-10-31T00:41:30;96644.66;;;12.65;88.43
81057;BME280;70563;50.084;14.468;2023-10-31T00:43:55;96637.00;;;12.69;88.46
81057;BME280;70563;50.084;14.468;2023-10-31T00:46:21;96648.94;;;12.71;88.91
81057;BME280;70563;50.084;14.468;2023-10-31T00:48:46;96660.41;;;12.77;88.45
81057;BME280;70563;50.084;14.468;2023-10-31T00:51:12;96687.75;;;12.83;88.09
81057;BME280;70563;50.084;14.468;2023-10-31T00:53:37;96684.44;;;12.70;88.61
81057;BME280;70563;50.084;14.468;2023-10-31T00:56:03;96680.34;;;12.63;89.26
81057;BME280;70563;50.084;14.468;2023-10-31T00:58:29;96700.53;;;12.69;88.94
81057;BME280;70563;50.084;14.468;2023-10-31T01:00:54;96688.44;;;12.56;88.97
81057;BME280;70563;50.084;14.468;2023-10-31T01:03:19;96700.03;;;12.50;89.83
81057;BME280;70563;50.084;14.468;2023-10-31T01:05:45;96691.34;;;12.54;89.62
81057;BME280;70563;50.084;14.468;2023-10-31T01:08:10;96698.50;;;12.54;89.44
81057;BME280;70563;50.084;14.468;2023-10-31T01:10:36;96695.16;;;12.42;89.96
81057;BME280;70563;50.084;14.468;2023-10-31T01:13:01;96706.00;;;12.40;90.18
81057;BME280;70563;50.084;14.468;2023-10-31T01:15:26;96698.59;;;12.42;89.52
81057;BME280;70563;50.084;14.468;2023-10-31T01:17:52;96704.69;;;12.43;88.62
81057;BME280;70563;50.084;14.468;2023-10-31T01:20:17;96684.69;;;12.52;87.51
81057;BME280;70563;50.084;14.468;2023-10-31T01:22:42;96689.28;;;12.57;86.30
81057;BME280;70563;50.084;14.468;2023-10-31T01:25:08;96674.09;;;12.52;86.95
81057;BME280;70563;50.084;14.468;2023-10-31T01:27:33;96676.75;;;12.52;86.36
81057;BME280;70563;50.084;14.468;2023-10-31T01:29:59;96683.50;;;12.43;86.84
81057;BME280;70563;50.084;14.468;2023-10-31T01:32:24;96679.25;;;12.42;86.86
81057;BME280;70563;50.084;14.468;2023-10-31T01:34:49;96691.53;;;12.48;86.23
81057;BME280;70563;50.084;14.468;2023-10-31T01:37:15;96698.50;;;12.54;85.89
81057;BME280;70563;50.084;14.468;2023-10-31T01:39:40;96692.16;;;12.55;86.04
81057;BME280;70563;50.084;14.468;2023-10-31T01:42:06;96693.28;;;12.59;85.15
81057;BME280;70563;50.084;14.468;2023-10-31T01:44:31;96703.00;;;12.53;85.77
81057;BME280;70563;50.084;14.468;2023-10-31T01:46:57;96699.88;;;12.57;85.33
81057;BME280;70563;50.084;14.468;2023-10-31T01:49:22;96698.19;;;12.50;85.99
81057;BME280;70563;50.084;14.468;2023-10-31T01:51:48;96706.44;;;12.54;85.83
81057;BME280;70563;50.084;14.468;2023-10-31T01:54:14;96714.31;;;12.49;85.31
81057;BME280;70563;50.084;14.468;2023-10-31T01:56:40;96725.06;;;12.42;86.02
81057;BME280;70563;50.084;14.468;2023-10-31T01:59:06;96720.56;;;12.43;86.35
81057;BME280;70563;50.084;14.468;2023-10-31T02:01:41;96729.56;;;12.42;86.77
81057;BME280;70563;50.084;14.468;2023-10-31T02:04:06;96724.25;;;12.42;86.35
81057;BME280;70563;50.084;14.468;2023-10-31T02:06:32;96729.31;;;12.43;86.80
81057;BME280;70563;50.084;14.468;2023-10-31T02:08:57;96734.38;;;12.45;87.29
81057;BME280;70563;50.084;14.468;2023-10-31T02:11:23;96742.78;;;12.42;87.07
81057;BME280;70563;50.084;14.468;2023-10-31T02:13:48;96739.34;;;12.41;88.20
81057;BME280;70563;50.084;14.468;2023-10-31T02:16:13;96743.25;;;12.39;88.60
81057;BME280;70563;50.084;14.468;2023-10-31T02:18:39;96739.81;;;12.38;87.83
81057;BME280;70563;50.084;14.468;2023-10-31T02:21:04;96745.44;;;12.42;87.80
81057;BME280;70563;50.084;14.468;2023-10-31T02:23:30;96755.22;;;12.41;87.39
81057;BME280;70563;50.084;14.468;2023-10-31T02:25:55;96748.16;;;12.47;87.32
81057;BME280;70563;50.084;14.468;2023-10-31T02:28:20;96750.72;;;12.59;87.30
81057;BME280;70563;50.084;14.468;2023-10-31T02:30:46;96747.66;;;12.67;87.09
81057;BME280;70563;50.084;14.468;2023-10-31T02:33:11;96751.50;;;12.59;88.31
81057;BME280;70563;50.084;14.468;2023-10-31T02:35:36;96752.44;;;12.48;87.94
81057;BME280;70563;50.084;14.468;2023-10-31T02:38:02;96757.16;;;12.46;88.44
81057;BME280;70563;50.084;14.468;2023-10-31T02:40:27;96759.72;;;12.41;89.54
81057;BME280;70563;50.084;14.468;2023-10-31T02:42:53;96769.19;;;12.37;90.10
81057;BME280;70563;50.084;14.468;2023-10-31T02:45:18;96774.72;;;12.35;89.27
81057;BME280;70563;50.084;14.468;2023-10-31T02:47:44;96779.13;;;12.29;90.04
81057;BME280;70563;50.084;14.468;2023-10-31T02:50:09;96777.53;;;12.28;90.43
81057;BME280;70563;50.084;14.468;2023-10-31T02:52:35;96783.28;;;12.25;90.86
81057;BME280;70563;50.084;14.468;2023-10-31T02:55:01;96783.22;;;12.20;91.17
81057;BME280;70563;50.084;14.468;2023-10-31T02:57:27;96784.00;;;12.21;91.30
81057;BME280;70563;50.084;14.468;2023-10-31T02:59:52;96777.25;;;12.13;91.29
81057;BME280;70563;50.084;14.468;2023-10-31T03:02:18;96786.97;;;12.08;92.09
81057;BME280;70563;50.084;14.468;2023-10-31T03:04:43;96782.47;;;12.08;92.52
81057;BME280;70563;50.084;14.468;2023-10-31T03:07:08;96784.47;;;12.01;93.66
81057;BME280;70563;50.084;14.468;2023-10-31T03:09:34;96782.78;;;11.95;94.15
81057;BME280;70563;50.084;14.468;2023-10-31T03:11:59;96789.66;;;11.96;94.62
81057;BME280;70563;50.084;14.468;2023-10-31T03:14:24;96796.00;;;11.95;94.25
81057;BME280;70563;50.084;14.468;2023-10-31T03:16:50;96804.31;;;11.87;95.29
81057;BME280;70563;50.084;14.468;2023-10-31T03:19:15;96796.50;;;11.80;96.26
81057;BME280;70563;50.084;14.468;2023-10-31T03:21:41;96811.25;;;11.76;95.17
81057;BME280;70563;50.084;14.468;2023-10-31T03:24:06;96819.88;;;11.71;95.58
81057;BME280;70563;50.084;14.468;2023-10-31T03:26:32;96831.72;;;11.69;96.89
81057;BME280;70563;50.084;14.468;2023-10-31T03:28:57;96829.31;;;11.67;97.28
81057;BME280;70563;50.084;14.468;2023-10-31T03:31:23;96833.00;;;11.66;97.13
81057;BME280;70563;50.084;14.468;2023-10-31T03:33:49;96828.19;;;11.63;96.81
81057;BME280;70563;50.084;14.468;2023-10-31T03:36:15;96831.63;;;11.64;97.29
81057;BME280;70563;50.084;14.468;2023-10-31T03:38:40;96828.72;;;11.65;97.44
81057;BME280;70563;50.084;14.468;2023-10-31T03:41:06;96836.66;;;11.65;96.84
81057;BME280;70563;50.084;14.468;2023-10-31T03:43:31;96851.88;;;11.58;96.99
81057;BME280;70563;50.084;14.468;2023-10-31T03:45:57;96842.09;;;11.59;97.47
81057;BME280;70563;50.084;14.468;2023-10-31T03:48:22;96831.91;;;11.50;98.29
81057;BME280;70563;50.084;14.468;2023-10-31T03:50:47;96824.75;;;11.51;97.65
81057;BME280;70563;50.084;14.468;2023-10-31T03:53:14;96828.66;;;11.48;97.53
81057;BME280;70563;50.084;14.468;2023-10-31T03:55:40;96826.84;;;11.49;97.90
81057;BME280;70563;50.084;14.468;2023-10-31T03:58:05;96823.16;;;11.50;97.93
81057;BME280;70563;50.084;14.468;2023-10-31T04:00:31;96823.97;;;11.50;97.48
81057;BME280;70563;50.084;14.468;2023-10-31T04:02:56;96828.44;;;11.50;97.53
81057;BME280;70563;50.084;14.468;2023-10-31T04:05:22;96831.66;;;11.52;97.49
81057;BME280;70563;50.084;14.468;2023-10-31T04:07:48;96840.63;;;11.51;97.69
81057;BME280;70563;50.084;14.468;2023-10-31T04:10:14;96838.06;;;11.56;97.52
81057;BME280;70563;50.084;14.468;2023-10-31T04:12:40;96848.31;;;11.52;97.40
81057;BME280;70563;50.084;14.468;2023-10-31T04:15:07;96853.03;;;11.50;97.35
81057;BME280;70563;50.084;14.468;2023-10-31T04:17:32;96849.13;;;11.53;97.22
81057;BME280;70563;50.084;14.468;2023-10-31T04:19:58;96849.69;;;11.55;96.94
81057;BME280;70563;50.084;14.468;2023-10-31T04:22:23;96836.13;;;11.51;97.73
81057;BME280;70563;50.084;14.468;2023-10-31T04:24:48;96843.72;;;11.48;97.81
81057;BME280;70563;50.084;14.468;2023-10-31T04:27:14;96841.09;;;11.48;96.88
81057;BME280;70563;50.084;14.468;2023-10-31T04:29:39;96846.38;;;11.48;97.11
81057;BME280;70563;50.084;14.468;2023-10-31T04:32:05;96845.34;;;11.49;96.42
81057;BME280;70563;50.084;14.468;2023-10-31T04:34:31;96839.47;;;11.47;98.17
81057;BME280;70563;50.084;14.468;2023-10-31T04:36:56;96837.97;;;11.51;96.68
81057;BME280;70563;50.084;14.468;2023-10-31T04:39:22;96842.72;;;11.49;97.10
81057;BME280;70563;50.084;14.468;2023-10-31T04:41:47;96850.06;;;11.47;97.24
81057;BME280;70563;50.084;14.468;2023-10-31T04:44:13;96843.50;;;11.49;96.33
81057;BME280;70563;50.084;14.468;2023-10-31T04:46:38;96852.16;;;11.45;96.00
81057;BME280;70563;50.084;14.468;2023-10-31T04:49:04;96852.34;;;11.43;96.98
81057;BME280;70563;50.084;14.468;2023-10-31T04:51:36;96852.16;;;11.45;97.31
81057;BME280;70563;50.084;14.468;2023-10-31T04:54:02;96855.78;;;11.44;97.33
81057;BME280;70563;50.084;14.468;2023-10-31T04:56:27;96854.53;;;11.46;96.40
81057;BME280;70563;50.084;14.468;2023-10-31T04:58:53;96861.22;;;11.49;96.41
81057;BME280;70563;50.084;14.468;2023-10-31T05:01:18;96862.81;;;11.50;95.85
81057;BME280;70563;50.084;14.468;2023-10-31T05:03:44;96866.00;;;11.52;95.42
81057;BME280;70563;50.084;14.468;2023-10-31T05:06:10;96880.03;;;11.52;95.94
81057;BME280;70563;50.084;14.468;2023-10-31T05:08:35;96873.94;;;11.52;95.42
81057;BME280;70563;50.084;14.468;2023-10-31T05:11:01;96879.81;;;11.54;95.54
81057;BME280;70563;50.084;14.468;2023-10-31T05:13:26;96883.50;;;11.53;94.89
81057;BME280;70563;50.084;14.468;2023-10-31T05:15:51;96885.91;;;11.54;94.75
81057;BME280;70563;50.084;14.468;2023-10-31T05:18:17;96902.31;;;11.56;95.23
81057;BME280;70563;50.084;14.468;2023-10-31T05:20:43;96897.28;;;11.55;95.21
81057;BME280;70563;50.084;14.468;2023-10-31T05:23:08;96904.16;;;11.56;95.31
81057;BME280;70563;50.084;14.468;2023-10-31T05:25:34;96905.75;;;11.57;94.98
81057;BME280;70563;50.084;14.468;2023-10-31T05:27:59;96905.53;;;11.59;95.29
81057;BME280;70563;50.084;14.468;2023-10-31T05:30:25;96916.22;;;11.52;94.85
81057;BME280;70563;50.084;14.468;2023-10-31T05:32:51;96915.78;;;11.55;94.54
81057;BME280;70563;50.084;14.468;2023-10-31T05:37:45;96926.44;;;11.60;94.57
81057;BME280;70563;50.084;14.468;2023-10-31T05:40:11;96946.56;;;11.61;94.08
81057;BME280;70563;50.084;14.468;2023-10-31T05:42:36;96954.03;;;11.64;94.34
81057;BME280;70563;50.084;14.468;2023-10-31T05:45:02;96959.09;;;11.66;94.02
81057;BME280;70563;50.084;14.468;2023-10-31T05:47:28;96956.56;;;11.71;93.05
81057;BME280;70563;50.084;14.468;2023-10-31T05:49:53;96968.63;;;11.67;93.76
81057;BME280;70563;50.084;14.468;2023-10-31T05:52:19;96975.41;;;11.63;94.17
81057;BME280;70563;50.084;14.468;2023-10-31T05:54:44;96977.81;;;11.64;93.82
81057;BME280;70563;50.084;14.468;2023-10-31T05:57:09;96980.25;;;11.66;93.30
81057;BME280;70563;50.084;14.468;2023-10-31T05:59:35;96984.03;;;11.70;93.19
81057;BME280;70563;50.084;14.468;2023-10-31T06:02:00;96976.91;;;11.70;92.58
81057;BME280;70563;50.084;14.468;2023-10-31T06:04:25;96975.63;;;11.73;91.96
81057;BME280;70563;50.084;14.468;2023-10-31T06:06:51;96981.25;;;11.76;91.27
81057;BME280;70563;50.084;14.468;2023-10-31T06:09:17;96975.72;;;11.78;91.22
81057;BME280;70563;50.084;14.468;2023-10-31T06:11:42;96982.31;;;11.87;89.88
81057;BME280;70563;50.084;14.468;2023-10-31T06:14:09;96993.94;;;11.86;90.96
81057;BME280;70563;50.084;14.468;2023-10-31T06:16:41;97001.75;;;11.93;89.49
81057;BME280;70563;50.084;14.468;2023-10-31T06:19:07;97009.78;;;11.98;88.66
81057;BME280;70563;50.084;14.468;2023-10-31T06:21:32;97019.56;;;11.97;87.99
81057;BME280;70563;50.084;14.468;2023-10-31T06:23:58;97037.38;;;12.02;87.93
81057;BME280;70563;50.084;14.468;2023-10-31T06:26:23;97028.41;;;12.03;87.59
81057;BME280;70563;50.084;14.468;2023-10-31T06:28:48;97050.59;;;12.02;87.26
81057;BME280;70563;50.084;14.468;2023-10-31T06:31:14;97057.50;;;12.03;87.82
81057;BME280;70563;50.084;14.468;2023-10-31T06:33:39;97052.81;;;12.05;88.01
81057;BME280;70563;50.084;14.468;2023-10-31T06:36:05;97056.59;;;12.09;87.78
81057;BME280;70563;50.084;14.468;2023-10-31T06:38:31;97058.66;;;12.07;87.83
81057;BME280;70563;50.084;14.468;2023-10-31T06:40:57;97060.16;;;12.03;87.88
81057;BME280;70563;50.084;14.468;2023-10-31T06:43:22;97067.53;;;12.01;87.67
81057;BME280;70563;50.084;14.468;2023-10-31T06:45:47;97064.41;;;12.04;85.97
81057;BME280;70563;50.084;14.468;2023-10-31T06:48:13;97070.84;;;12.08;85.00
81057;BME280;70563;50.084;14.468;2023-10-31T06:50:38;97071.06;;;12.07;83.45
81057;BME280;70563;50.084;14.468;2023-10-31T06:53:03;97072.56;;;12.14;83.54
81057;BME280;70563;50.084;14.468;2023-10-31T06:55:29;97079.34;;;12.10;83.53
81057;BME280;70563;50.084;14.468;2023-10-31T06:57:54;97090.97;;;12.09;83.30
81057;BME280;70563;50.084;14.468;2023-10-31T07:00:19;97084.06;;;12.08;82.02
81057;BME280;70563;50.084;14.468;2023-10-31T07:02:46;97092.25;;;12.07;83.01
81057;BME280;70563;50.084;14.468;2023-10-31T07:05:13;97090.41;;;12.07;82.00
81057;BME280;70563;50.084;14.468;2023-10-31T07:07:39;97088.56;;;12.08;81.39
81057;BME280;70563;50.084;14.468;2023-10-31T07:10:05;97100.97;;;12.19;80.94
81057;BME280;70563;50.084;14.468;2023-10-31T07:12:30;97094.28;;;12.16;80.27
81057;BME280;70563;50.084;14.468;2023-10-31T07:14:56;97104.31;;;12.14;79.14
81057;BME280;70563;50.084;14.468;2023-10-31T07:17:23;97110.28;;;12.21;79.98
81057;BME280;70563;50.084;14.468;2023-10-31T07:19:49;97114.06;;;12.25;79.76
81057;BME280;70563;50.084;14.468;2023-10-31T07:22:14;97121.19;;;12.37;78.87
81057;BME280;70563;50.084;14.468;2023-10-31T07:24:40;97113.38;;;12.42;77.60
81057;BME280;70563;50.084;14.468;2023-10-31T07:27:06;97115.28;;;12.58;77.18
81057;BME280;70563;50.084;14.468;2023-10-31T07:29:31;97117.66;;;12.71;75.18
81057;BME280;70563;50.084;14.468;2023-10-31T07:31:56;97115.91;;;12.77;75.68
81057;BME280;70563;50.084;14.468;2023-10-31T07:34:22;97124.00;;;12.70;75.32
81057;BME280;70563;50.084;14.468;2023-10-31T07:36:47;97126.06;;;12.68;76.00
81057;BME280;70563;50.084;14.468;2023-10-31T07:39:12;97143.81;;;12.56;75.31
81057;BME280;70563;50.084;14.468;2023-10-31T07:41:39;97157.09;;;12.44;75.67
81057;BME280;70563;50.084;14.468;2023-10-31T07:44:05;97162.97;;;12.35;76.07
81057;BME280;70563;50.084;14.468;2023-10-31T07:46:31;97176.78;;;12.37;77.36
81057;BME280;70563;50.084;14.468;2023-10-31T07:48:56;97178.72;;;12.29;76.37
81057;BME280;70563;50.084;14.468;2023-10-31T07:51:22;97186.00;;;12.22;77.18
81057;BME280;70563;50.084;14.468;2023-10-31T07:53:47;97179.06;;;12.21;77.23
81057;BME280;70563;50.084;14.468;2023-10-31T07:56:16;97174.81;;;12.20;78.41
81057;BME280;70563;50.084;14.468;2023-10-31T07:58:42;97173.13;;;12.14;77.67
81057;BME280;70563;50.084;14.468;2023-10-31T08:01:08;97172.63;;;12.17;77.95
81057;BME280;70563;50.084;14.468;2023-10-31T08:03:36;97166.53;;;12.17;78.14
81057;BME280;70563;50.084;14.468;2023-10-31T08:06:04;97169.19;;;12.17;78.05
81057;BME280;70563;50.084;14.468;2023-10-31T08:08:30;97157.56;;;12.29;77.47
81057;BME280;70563;50.084;14.468;2023-10-31T08:10:55;97147.44;;;12.38;77.50
81057;BME280;70563;50.084;14.468;2023-10-31T08:13:22;97161.19;;;12.64;75.80
81057;BME280;70563;50.084;14.468;2023-10-31T08:15:47;97149.53;;;12.88;74.08
81057;BME280;70563;50.084;14.468;2023-10-31T08:18:13;97148.19;;;13.43;72.17
81057;BME280;70563;50.084;14.468;2023-10-31T08:20:38;97133.56;;;13.57;70.33
81057;BME280;70563;50.084;14.468;2023-10-31T08:23:04;97134.22;;;13.47;69.64
81057;BME280;70563;50.084;14.468;2023-10-31T08:25:29;97161.69;;;13.01;70.23
81057;BME280;70563;50.084;14.468;2023-10-31T08:27:54;97175.66;;;12.85;71.54
81057;BME280;70563;50.084;14.468;2023-10-31T08:30:20;97195.34;;;12.89;71.22
81057;BME280;70563;50.084;14.468;2023-10-31T08:32:45;97222.34;;;12.62;72.30
81057;BME280;70563;50.084;14.468;2023-10-31T08:35:11;97240.31;;;12.48;73.16
81057;BME280;70563;50.084;14.468;2023-10-31T08:37:36;97256.31;;;12.42;72.96
81057;BME280;70563;50.084;14.468;2023-10-31T08:40:02;97275.28;;;12.39;71.89
81057;BME280;70563;50.084;14.468;2023-10-31T08:42:29;97290.13;;;12.28;71.79
81057;BME280;70563;50.084;14.468;2023-10-31T08:44:55;97289.69;;;12.31;72.48
81057;BME280;70563;50.084;14.468;2023-10-31T08:47:20;97286.78;;;12.21;73.22
81057;BME280;70563;50.084;14.468;2023-10-31T08:49:46;97283.59;;;12.30;72.36
81057;BME280;70563;50.084;14.468;2023-10-31T08:52:11;97284.03;;;12.27;71.75
81057;BME280;70563;50.084;14.468;2023-10-31T08:54:36;97283.44;;;12.25;71.65
81057;BME280;70563;50.084;14.468;2023-10-31T08:57:02;97287.13;;;12.24;71.71
81057;BME280;70563;50.084;14.468;2023-10-31T08:59:27;97289.22;;;12.22;71.48
81057;BME280;70563;50.084;14.468;2023-10-31T09:01:52;97295.19;;;12.18;71.90
81057;BME280;70563;50.084;14.468;2023-10-31T09:04:18;97284.59;;;12.18;71.14
81057;BME280;70563;50.084;14.468;2023-10-31T09:06:43;97284.72;;;12.23;71.22
81057;BME280;70563;50.084;14.468;2023-10-31T09:09:09;97291.53;;;12.30;69.48
81057;BME280;70563;50.084;14.468;2023-10-31T09:11:35;97296.94;;;12.36;70.20
81057;BME280;70563;50.084;14.468;2023-10-31T09:14:01;97298.44;;;12.32;70.32
81057;BME280;70563;50.084;14.468;2023-10-31T09:16:26;97308.91;;;12.50;69.74
81057;BME280;70563;50.084;14.468;2023-10-31T09:18:51;97320.28;;;12.39;68.91
81057;BME280;70563;50.084;14.468;2023-10-31T09:21:17;97329.38;;;12.43;68.85
81057;BME280;70563;50.084;14.468;2023-10-31T09:23:43;97328.56;;;12.42;67.58
81057;BME280;70563;50.084;14.468;2023-10-31T09:26:08;97323.63;;;12.46;68.30
81057;BME280;70563;50.084;14.468;2023-10-31T09:28:35;97307.88;;;12.51;68.21
81057;BME280;70563;50.084;14.468;2023-10-31T09:31:01;97307.53;;;12.59;68.11
81057;BME280;70563;50.084;14.468;2023-10-31T09:33:27;97307.44;;;12.54;67.74
81057;BME280;70563;50.084;14.468;2023-10-31T09:35:52;97301.44;;;12.59;68.14
81057;BME280;70563;50.084;14.468;2023-10-31T09:38:17;97289.00;;;12.71;67.66
81057;BME280;70563;50.084;14.468;2023-10-31T09:40:43;97295.31;;;12.81;67.38
81057;BME280;70563;50.084;14.468;2023-10-31T09:43:08;97293.13;;;13.02;66.75
81057;BME280;70563;50.084;14.468;2023-10-31T09:45:33;97295.75;;;13.37;65.84
81057;BME280;70563;50.084;14.468;2023-10-31T09:48:00;97286.06;;;13.19;65.50
81057;BME280;70563;50.084;14.468;2023-10-31T09:50:27;97283.78;;;13.35;65.75
81057;BME280;70563;50.084;14.468;2023-10-31T09:52:55;97278.41;;;13.46;65.14
81057;BME280;70563;50.084;14.468;2023-10-31T09:55:22;97281.13;;;13.92;63.54
81057;BME280;70563;50.084;14.468;2023-10-31T09:57:47;97275.34;;;13.95;62.69
81057;BME280;70563;50.084;14.468;2023-10-31T10:00:13;97272.53;;;14.18;60.76
81057;BME280;70563;50.084;14.468;2023-10-31T10:02:38;97264.44;;;14.08;60.88
81057;BME280;70563;50.084;14.468;2023-10-31T10:05:04;97284.72;;;13.86;61.71
81057;BME280;70563;50.084;14.468;2023-10-31T10:07:33;97275.69;;;13.70;62.41
81057;BME280;70563;50.084;14.468;2023-10-31T10:09:59;97272.03;;;13.88;61.36
81057;BME280;70563;50.084;14.468;2023-10-31T10:12:27;97280.94;;;14.44;60.09
81057;BME280;70563;50.084;14.468;2023-10-31T10:14:53;97272.53;;;14.86;58.51
81057;BME280;70563;50.084;14.468;2023-10-31T10:17:22;97271.78;;;14.51;59.07
81057;BME280;70563;50.084;14.468;2023-10-31T10:20:09;97269.31;;;14.84;58.38
81057;BME280;70563;50.084;14.468;2023-10-31T10:22:39;97266.34;;;14.63;58.68
81057;BME280;70563;50.084;14.468;2023-10-31T10:25:08;97263.69;;;14.63;59.19
81057;BME280;70563;50.084;14.468;2023-10-31T10:27:34;97252.88;;;14.87;57.64
81057;BME280;70563;50.084;14.468;2023-10-31T10:30:01;97257.44;;;14.69;57.74
81057;BME280;70563;50.084;14.468;2023-10-31T10:32:26;97263.16;;;14.61;58.18
81057;BME280;70563;50.084;14.468;2023-10-31T10:34:54;97271.78;;;14.68;57.64
81057;BME280;70563;50.084;14.468;2023-10-31T10:37:19;97276.50;;;14.66;58.34
81057;BME280;70563;50.084;14.468;2023-10-31T10:39:47;97275.66;;;14.15;59.11
81057;BME280;70563;50.084;14.468;2023-10-31T10:42:17;97283.09;;;13.85;60.28
81057;BME280;70563;50.084;14.468;2023-10-31T10:44:44;97283.47;;;14.05;60.35
81057;BME280;70563;50.084;14.468;2023-10-31T10:47:12;97272.47;;;14.13;59.50
81057;BME280;70563;50.084;14.468;2023-10-31T10:49:40;97269.31;;;13.99;59.38
81057;BME280;70563;50.084;14.468;2023-10-31T10:52:23;97251.34;;;14.52;58.78
81057;BME280;70563;50.084;14.468;2023-10-31T10:54:54;97243.19;;;14.08;58.98
81057;BME280;70563;50.084;14.468;2023-10-31T10:57:32;97265.63;;;14.00;59.41
81057;BME280;70563;50.084;14.468;2023-10-31T11:00:03;97295.97;;;13.47;61.08
81057;BME280;70563;50.084;14.468;2023-10-31T11:02:30;97328.56;;;13.48;61.50
81057;BME280;70563;50.084;14.468;2023-10-31T11:04:56;97340.47;;;13.34;61.80
81057;BME280;70563;50.084;14.468;2023-10-31T11:07:22;97345.66;;;13.28;61.76
81057;BME280;70563;50.084;14.468;2023-10-31T11:09:49;97352.81;;;13.40;61.81
81057;BME280;70563;50.084;14.468;2023-10-31T11:12:15;97358.53;;;13.60;61.27
81057;BME280;70563;50.084;14.468;2023-10-31T11:14:42;97356.28;;;13.28;61.23
81057;BME280;70563;50.084;14.468;2023-10-31T11:17:30;97359.59;;;13.36;61.83
81057;BME280;70563;50.084;14.468;2023-10-31T11:19:56;97356.72;;;13.25;61.98
81057;BME280;70563;50.084;14.468;2023-10-31T11:22:22;97357.53;;;13.14;62.49
81057;BME280;70563;50.084;14.468;2023-10-31T11:24:50;97359.03;;;13.10;62.56
81057;BME280;70563;50.084;14.468;2023-10-31T11:27:17;97363.63;;;13.03;63.02
81057;BME280;70563;50.084;14.468;2023-10-31T11:29:43;97380.13;;;13.05;63.34
81057;BME280;70563;50.084;14.468;2023-10-31T11:32:09;97401.06;;;12.95;63.12
81057;BME280;70563;50.084;14.468;2023-10-31T11:34:37;97415.34;;;12.94;63.47
81057;BME280;70563;50.084;14.468;2023-10-31T11:37:31;97395.56;;;12.96;63.99
81057;BME280;70563;50.084;14.468;2023-10-31T11:42:57;97387.13;;;12.99;65.41
81057;BME280;70563;50.084;14.468;2023-10-31T11:45:29;97372.16;;;12.81;65.17
81057;BME280;70563;50.084;14.468;2023-10-31T11:47:55;97379.06;;;12.71;66.51
81057;BME280;70563;50.084;14.468;2023-10-31T11:50:21;97380.22;;;12.75;66.57
81057;BME280;70563;50.084;14.468;2023-10-31T11:53:03;97382.50;;;12.71;65.78
81057;BME280;70563;50.084;14.468;2023-10-31T11:55:33;97379.88;;;12.71;66.63
81057;BME280;70563;50.084;14.468;2023-10-31T11:58:18;97383.31;;;12.72;66.57
81057;BME280;70563;50.084;14.468;2023-10-31T12:01:04;97398.63;;;12.70;66.81
81057;BME280;70563;50.084;14.468;2023-10-31T12:03:41;97395.16;;;12.58;67.50
81057;BME280;70563;50.084;14.468;2023-10-31T12:06:07;97406.03;;;12.38;68.11
81057;BME280;70563;50.084;14.468;2023-10-31T12:08:39;97407.06;;;12.37;68.42
81057;BME280;70563;50.084;14.468;2023-10-31T12:11:11;97399.56;;;12.34;68.41
81057;BME280;70563;50.084;14.468;2023-10-31T12:13:39;97405.34;;;12.30;68.66
81057;BME280;70563;50.084;14.468;2023-10-31T12:16:06;97401.38;;;12.21;68.19
81057;BME280;70563;50.084;14.468;2023-10-31T12:18:35;97420.84;;;12.27;68.55
81057;BME280;70563;50.084;14.468;2023-10-31T12:21:02;97422.53;;;12.21;67.98
81057;BME280;70563;50.084;14.468;2023-10-31T12:23:28;97420.19;;;12.13;67.83
81057;BME280;70563;50.084;14.468;2023-10-31T12:25:54;97401.03;;;12.18;68.46
81057;BME280;70563;50.084;14.468;2023-10-31T12:28:23;97401.47;;;12.15;67.72
81057;BME280;70563;50.084;14.468;2023-10-31T12:30:52;97406.84;;;12.08;68.50
81057;BME280;70563;50.084;14.468;2023-10-31T12:33:25;97400.84;;;12.01;67.85
81057;BME280;70563;50.084;14.468;2023-10-31T12:35:52;97403.81;;;12.04;68.16
81057;BME280;70563;50.084;14.468;2023-10-31T12:38:21;97401.91;;;12.12;67.86
81057;BME280;70563;50.084;14.468;2023-10-31T12:40:47;97409.03;;;12.11;67.47
81057;BME280;70563;50.084;14.468;2023-10-31T12:43:12;97401.28;;;11.98;68.07
81057;BME280;70563;50.084;14.468;2023-10-31T12:45:38;97405.28;;;11.89;68.04
81057;BME280;70563;50.084;14.468;2023-10-31T12:48:06;97399.75;;;11.90;68.51
81057;BME280;70563;50.084;14.468;2023-10-31T12:50:33;97405.41;;;11.94;69.28